Time;durP1;ratioP1;P1;durP2;ratioP2;P2;SDS_P1;SDS_P2;PMS_P1;PMS_P2;Temp;Humidity;BMP_temperature;BMP_pressure;BME280_temperature;BME280_humidity;BME280_pressure;Samples;Min_cycle;Max_cycle;Signal;HPM_P1;HPM_P2
2021/11/08 00:00:12;;;;;;;23.35;5.13;;;;;;;;;;5028857;28;20035;-70
2021/11/08 00:02:38;;;;;;;27.90;4.63;;;;;;;;;;5029895;28;20029;-69
2021/11/08 00:05:04;;;;;;;33.70;5.63;;;;;;;;;;5031747;28;20466;-69
2021/11/08 00:07:29;;;;;;;36.63;6.70;;;;;;;;;;5030892;28;20432;-69
2021/11/08 00:09:55;;;;;;;28.27;7.28;;;;;;;;;;5031757;28;20029;-69
2021/11/08 00:12:23;;;;;;;33.65;6.05;;;;;;;;;;5031153;28;20022;-69
2021/11/08 00:14:49;;;;;;;34.45;6.00;;;;;;;;;;5030944;28;20425;-69
2021/11/08 00:19:59;;;;;;;47.92;6.25;;;;;;;;;;5031838;28;20059;-69
2021/11/08 00:22:24;;;;;;;40.45;6.28;;;;;;;;;;5030876;28;20028;-69
2021/11/08 00:24:51;;;;;;;25.90;6.68;;;;;;;;;;5031071;28;20029;-69
2021/11/08 00:27:16;;;;;;;34.78;6.03;;;;;;;;;;5031333;28;20387;-69
2021/11/08 00:29:42;;;;;;;30.90;6.13;;;;;;;;;;5031465;28;20025;-69
2021/11/08 00:32:08;;;;;;;33.60;5.72;;;;;;;;;;5030716;28;20370;-69
2021/11/08 00:34:33;;;;;;;43.85;6.40;;;;;;;;;;5028960;28;20029;-69
2021/11/08 00:36:58;;;;;;;32.53;6.13;;;;;;;;;;5030902;28;20059;-70
2021/11/08 00:39:25;;;;;;;33.38;6.85;;;;;;;;;;5042566;28;20272;-69
2021/11/08 00:41:50;;;;;;;29.88;5.53;;;;;;;;;;5051195;28;20017;-70
2021/11/08 00:44:16;;;;;;;31.25;5.97;;;;;;;;;;5049673;28;20155;-69
2021/11/08 00:46:41;;;;;;;25.98;7.07;;;;;;;;;;5030923;28;20034;-69
2021/11/08 00:49:06;;;;;;;27.90;5.60;;;;;;;;;;5029982;28;20021;-69
2021/11/08 00:51:36;;;;;;;35.83;6.55;;;;;;;;;;5030078;28;20029;-69
2021/11/08 00:54:01;;;;;;;34.40;6.72;;;;;;;;;;5026413;28;20469;-69
2021/11/08 00:56:27;;;;;;;28.42;7.80;;;;;;;;;;5030491;28;20040;-69
2021/11/08 00:58:52;;;;;;;31.23;5.95;;;;;;;;;;5030563;28;20033;-69
2021/11/08 01:01:20;;;;;;;32.95;6.80;;;;;;;;;;5062683;23;20409;-68
2021/11/08 01:03:46;;;;;;;31.67;6.13;;;;;;;;;;5029986;28;20021;-68
2021/11/08 01:06:12;;;;;;;21.83;7.03;;;;;;;;;;5030561;28;20021;-68
2021/11/08 01:08:38;;;;;;;41.63;7.70;;;;;;;;;;5029998;28;20061;-67
2021/11/08 01:11:04;;;;;;;33.03;6.43;;;;;;;;;;5030155;28;20458;-67
2021/11/08 01:13:29;;;;;;;30.70;6.15;;;;;;;;;;5030611;28;20321;-69
2021/11/08 01:15:55;;;;;;;28.20;6.17;;;;;;;;;;5030899;28;20536;-68
2021/11/08 01:18:21;;;;;;;28.58;6.20;;;;;;;;;;5028571;28;20791;-68
2021/11/08 01:20:47;;;;;;;29.13;6.40;;;;;;;;;;5029400;28;20029;-68
2021/11/08 01:23:14;;;;;;;32.75;7.20;;;;;;;;;;5029714;28;20022;-68
2021/11/08 01:25:40;;;;;;;22.23;6.85;;;;;;;;;;5029423;28;20101;-67
2021/11/08 01:28:05;;;;;;;36.20;7.45;;;;;;;;;;5030564;28;20105;-67
2021/11/08 01:30:31;;;;;;;20.15;6.10;;;;;;;;;;5029987;28;20381;-67
2021/11/08 01:35:43;;;;;;;30.33;8.18;;;;;;;;;;5030517;28;20373;-68
2021/11/08 01:38:21;;;;;;;32.78;6.13;;;;;;;;;;5021883;28;20025;-67
2021/11/08 01:40:46;;;;;;;28.48;6.88;;;;;;;;;;5024424;28;20091;-67
2021/11/08 01:43:12;;;;;;;22.63;6.65;;;;;;;;;;5029933;28;20377;-67
2021/11/08 01:45:37;;;;;;;35.40;6.55;;;;;;;;;;5030385;28;20474;-68
2021/11/08 01:48:03;;;;;;;36.88;6.80;;;;;;;;;;5030148;28;20431;-67
2021/11/08 01:50:29;;;;;;;31.38;6.80;;;;;;;;;;5029514;28;20053;-67
2021/11/08 01:52:55;;;;;;;31.65;7.72;;;;;;;;;;5029579;28;20497;-68
2021/11/08 01:55:21;;;;;;;28.23;7.10;;;;;;;;;;5030104;28;20017;-68
2021/11/08 01:57:46;;;;;;;27.00;7.38;;;;;;;;;;5029830;28;20059;-68
2021/11/08 02:00:13;;;;;;;28.63;6.75;;;;;;;;;;5029090;28;20057;-68
2021/11/08 02:02:39;;;;;;;31.75;7.82;;;;;;;;;;5029870;28;20018;-68
2021/11/08 02:05:04;;;;;;;45.35;8.38;;;;;;;;;;5029333;28;20062;-67
2021/11/08 02:07:29;;;;;;;37.03;7.65;;;;;;;;;;5029928;28;20022;-67
2021/11/08 02:09:55;;;;;;;33.70;6.32;;;;;;;;;;5029414;28;20060;-68
2021/11/08 02:12:21;;;;;;;34.42;5.78;;;;;;;;;;5029444;28;20389;-68
2021/11/08 02:14:46;;;;;;;20.70;7.38;;;;;;;;;;5030049;28;20021;-67
2021/11/08 02:17:11;;;;;;;28.90;6.72;;;;;;;;;;5029457;28;20438;-68
2021/11/08 02:19:36;;;;;;;37.45;7.57;;;;;;;;;;5027522;28;20043;-68
2021/11/08 02:22:04;;;;;;;30.45;7.28;;;;;;;;;;5029465;28;20026;-68
2021/11/08 02:24:30;;;;;;;32.15;5.80;;;;;;;;;;5030077;28;20083;-67
2021/11/08 02:26:56;;;;;;;30.42;5.88;;;;;;;;;;5028816;28;20033;-67
2021/11/08 02:29:21;;;;;;;35.80;7.57;;;;;;;;;;5029448;28;20482;-68
2021/11/08 02:31:47;;;;;;;25.23;5.88;;;;;;;;;;5029247;28;20056;-68
2021/11/08 02:34:12;;;;;;;30.10;7.00;;;;;;;;;;5028907;28;20044;-68
2021/11/08 02:36:42;;;;;;;32.15;6.78;;;;;;;;;;5029405;28;20087;-68
2021/11/08 02:39:11;;;;;;;34.85;6.90;;;;;;;;;;5029663;28;20028;-68
2021/11/08 02:41:37;;;;;;;40.83;8.37;;;;;;;;;;5029755;28;20518;-67
2021/11/08 02:44:03;;;;;;;26.02;5.93;;;;;;;;;;5032029;28;20032;-68
2021/11/08 02:46:30;;;;;;;39.05;6.93;;;;;;;;;;5032978;28;20051;-68
2021/11/08 02:48:59;;;;;;;24.08;6.00;;;;;;;;;;5032742;28;20017;-68
2021/11/08 02:51:27;;;;;;;26.83;5.68;;;;;;;;;;5033236;28;20032;-68
2021/11/08 02:53:58;;;;;;;31.00;6.25;;;;;;;;;;5032441;28;20041;-67
2021/11/08 02:56:23;;;;;;;30.50;6.13;;;;;;;;;;5032768;28;20017;-68
2021/11/08 02:58:49;;;;;;;24.30;5.68;;;;;;;;;;5032854;28;20086;-68
2021/11/08 03:01:16;;;;;;;32.35;6.63;;;;;;;;;;5032116;28;20022;-67
2021/11/08 03:03:45;;;;;;;36.17;7.30;;;;;;;;;;5032931;28;20020;-67
2021/11/08 03:08:39;;;;;;;36.22;5.97;;;;;;;;;;5025444;28;20079;-68
2021/11/08 03:11:05;;;;;;;29.27;5.65;;;;;;;;;;5032563;28;20026;-68
2021/11/08 03:13:34;;;;;;;34.50;5.95;;;;;;;;;;5032601;28;20028;-68
2021/11/08 03:16:23;;;;;;;27.02;5.35;;;;;;;;;;5032546;28;20083;-66
2021/11/08 03:18:55;;;;;;;31.75;6.25;;;;;;;;;;5032532;28;20420;-67
2021/11/08 03:21:21;;;;;;;21.98;5.68;;;;;;;;;;5032822;28;20025;-67
2021/11/08 03:23:49;;;;;;;23.10;6.07;;;;;;;;;;5032414;28;20104;-68
2021/11/08 03:28:49;;;;;;;21.63;5.47;;;;;;;;;;5032061;28;20029;-68
2021/11/08 03:31:15;;;;;;;27.52;6.38;;;;;;;;;;5031777;28;20018;-68
2021/11/08 03:33:42;;;;;;;21.40;5.63;;;;;;;;;;5030748;28;20018;-67
2021/11/08 03:36:09;;;;;;;21.77;5.15;;;;;;;;;;5032249;28;20025;-67
2021/11/08 03:38:37;;;;;;;26.40;5.45;;;;;;;;;;5032183;28;20021;-68
2021/11/08 03:41:02;;;;;;;29.33;7.32;;;;;;;;;;5031804;28;20030;-66
2021/11/08 03:43:28;;;;;;;28.73;6.05;;;;;;;;;;5031573;28;20025;-67
2021/11/08 03:45:53;;;;;;;27.67;5.57;;;;;;;;;;5031701;28;20071;-68
2021/11/08 03:48:19;;;;;;;40.85;6.70;;;;;;;;;;5031844;28;20465;-67
2021/11/08 03:50:45;;;;;;;25.30;5.93;;;;;;;;;;5031910;28;20024;-67
2021/11/08 03:53:10;;;;;;;29.63;6.70;;;;;;;;;;5031620;28;20033;-68
2021/11/08 03:55:36;;;;;;;27.80;6.88;;;;;;;;;;5030941;28;20032;-68
2021/11/08 03:58:02;;;;;;;26.42;6.55;;;;;;;;;;5031894;28;20017;-67
2021/11/08 04:00:28;;;;;;;35.42;6.05;;;;;;;;;;5030280;28;20033;-68
2021/11/08 04:02:54;;;;;;;35.90;8.02;;;;;;;;;;5031487;28;20381;-68
2021/11/08 04:05:21;;;;;;;38.83;6.63;;;;;;;;;;5031957;28;20110;-68
2021/11/08 04:07:47;;;;;;;25.73;6.70;;;;;;;;;;5031838;28;20612;-69
2021/11/08 04:10:14;;;;;;;29.52;5.65;;;;;;;;;;5031387;28;20100;-68
2021/11/08 04:12:40;;;;;;;36.90;6.78;;;;;;;;;;5031489;28;20482;-67
2021/11/08 04:15:08;;;;;;;40.00;6.50;;;;;;;;;;5031292;28;20033;-68
2021/11/08 04:17:33;;;;;;;30.55;6.03;;;;;;;;;;5031349;28;20477;-68
2021/11/08 04:19:59;;;;;;;28.23;5.55;;;;;;;;;;5031290;28;20033;-67
2021/11/08 04:22:24;;;;;;;25.90;5.60;;;;;;;;;;5031190;28;20120;-68
2021/11/08 04:24:52;;;;;;;24.27;6.00;;;;;;;;;;5031642;28;20025;-68
2021/11/08 04:27:17;;;;;;;26.60;5.57;;;;;;;;;;5031157;28;20014;-67
2021/11/08 04:29:43;;;;;;;40.28;6.35;;;;;;;;;;5030617;28;20023;-68
2021/11/08 04:32:11;;;;;;;34.25;7.28;;;;;;;;;;5030912;28;20025;-67
2021/11/08 04:34:50;;;;;;;40.75;6.63;;;;;;;;;;5030530;28;20026;-68
2021/11/08 04:48:11;;;;;;;29.02;6.20;;;;;;;;;;5031027;28;20032;-66
2021/11/08 04:50:48;;;;;;;33.58;6.43;;;;;;;;;;5029597;28;20022;-66
2021/11/08 04:53:24;;;;;;;28.23;5.95;;;;;;;;;;5030630;28;20027;-67
2021/11/08 05:28:45;;;;;;;29.38;6.53;;;;;;;;;;5025869;28;20417;-68
2021/11/08 05:31:10;;;;;;;36.38;6.03;;;;;;;;;;5026480;28;20049;-66
2021/11/08 05:33:35;;;;;;;25.98;6.07;;;;;;;;;;5028198;28;20068;-67
2021/11/08 05:36:00;;;;;;;19.10;6.32;;;;;;;;;;5027582;28;20028;-68
2021/11/08 05:38:26;;;;;;;25.38;6.20;;;;;;;;;;5028655;28;20033;-66
2021/11/08 05:40:51;;;;;;;19.33;5.18;;;;;;;;;;5027597;28;20017;-67
2021/11/08 05:43:16;;;;;;;21.77;5.60;;;;;;;;;;5028022;28;20096;-67
2021/11/08 05:45:42;;;;;;;22.45;4.93;;;;;;;;;;5028253;28;20025;-68
2021/11/08 05:48:08;;;;;;;26.02;6.50;;;;;;;;;;5033153;28;20013;-67
2021/11/08 05:50:35;;;;;;;28.67;7.10;;;;;;;;;;5028775;28;20018;-67
2021/11/08 05:53:00;;;;;;;29.02;6.00;;;;;;;;;;5028333;28;20508;-66
2021/11/08 05:55:33;;;;;;;24.90;6.25;;;;;;;;;;5027175;28;20033;-67
2021/11/08 05:58:54;;;;;;;29.60;5.57;;;;;;;;;;5027891;28;20402;-68
2021/11/08 06:50:04;;;;;;;32.75;6.50;;;;;;;;;;5024160;28;20392;-66
2021/11/08 06:52:30;;;;;;;40.08;7.13;;;;;;;;;;5028219;28;20026;-67
2021/11/08 06:54:56;;;;;;;28.95;6.90;;;;;;;;;;5023874;28;20351;-67
2021/11/08 06:57:24;;;;;;;32.47;7.55;;;;;;;;;;5029038;28;20045;-68
2021/11/08 07:02:17;;;;;;;27.17;6.45;;;;;;;;;;5030538;28;20049;-69
2021/11/08 07:04:43;;;;;;;31.52;8.02;;;;;;;;;;5032348;28;20492;-69
2021/11/08 07:07:09;;;;;;;21.95;6.25;;;;;;;;;;5033042;28;20033;-68
2021/11/08 07:09:35;;;;;;;32.30;7.10;;;;;;;;;;5030806;28;20032;-68
2021/11/08 07:12:00;;;;;;;39.45;8.45;;;;;;;;;;5031934;28;20021;-69
2021/11/08 07:14:25;;;;;;;32.58;6.30;;;;;;;;;;5033165;28;20399;-69
2021/11/08 07:16:51;;;;;;;34.08;6.93;;;;;;;;;;5031844;28;20032;-68
2021/11/08 07:19:16;;;;;;;31.65;9.02;;;;;;;;;;5032477;28;20465;-68
2021/11/08 07:21:42;;;;;;;33.80;7.85;;;;;;;;;;5031999;28;20060;-68
2021/11/08 07:24:08;;;;;;;38.78;8.35;;;;;;;;;;5031206;28;20026;-68
2021/11/08 07:26:33;;;;;;;36.08;7.32;;;;;;;;;;5032635;28;20505;-69
2021/11/08 07:28:58;;;;;;;26.95;7.35;;;;;;;;;;5031422;28;20024;-69
2021/11/08 07:31:24;;;;;;;35.83;8.05;;;;;;;;;;5031019;28;20057;-68
2021/11/08 07:33:49;;;;;;;33.15;7.93;;;;;;;;;;5030151;28;20108;-69
2021/11/08 07:36:14;;;;;;;27.95;8.07;;;;;;;;;;5031583;28;20041;-68
2021/11/08 07:38:40;;;;;;;34.83;8.02;;;;;;;;;;5032146;28;20029;-68
2021/11/08 07:41:07;;;;;;;41.50;8.48;;;;;;;;;;5032103;28;20037;-68
2021/11/08 07:43:33;;;;;;;37.78;7.20;;;;;;;;;;5032164;28;20492;-68
2021/11/08 07:45:58;;;;;;;44.95;10.02;;;;;;;;;;5032415;28;20045;-68
2021/11/08 07:48:23;;;;;;;40.80;6.80;;;;;;;;;;5032514;28;20014;-68
2021/11/08 07:50:48;;;;;;;36.42;6.70;;;;;;;;;;5031297;28;20017;-68
2021/11/08 07:53:14;;;;;;;26.48;6.50;;;;;;;;;;5032091;28;20064;-69
2021/11/08 07:55:39;;;;;;;40.90;7.72;;;;;;;;;;5031766;28;20021;-68
2021/11/08 07:58:05;;;;;;;39.28;8.10;;;;;;;;;;5032219;28;20026;-68
2021/11/08 08:00:33;;;;;;;29.63;7.05;;;;;;;;;;5031347;28;20087;-68
2021/11/08 08:02:59;;;;;;;43.63;8.20;;;;;;;;;;5031208;28;20021;-68
2021/11/08 08:05:25;;;;;;;29.90;6.75;;;;;;;;;;5031667;28;20491;-68
2021/11/08 08:07:50;;;;;;;24.30;7.78;;;;;;;;;;5031781;28;20036;-68
2021/11/08 08:10:15;;;;;;;29.92;6.50;;;;;;;;;;5032168;28;20108;-68
2021/11/08 08:12:40;;;;;;;31.20;7.30;;;;;;;;;;5030614;28;20029;-68
2021/11/08 08:15:06;;;;;;;38.25;7.70;;;;;;;;;;5031482;28;20112;-68
2021/11/08 08:17:31;;;;;;;53.25;7.63;;;;;;;;;;5031650;28;20037;-68
2021/11/08 08:19:57;;;;;;;25.45;6.63;;;;;;;;;;5031327;28;20032;-68
2021/11/08 08:22:24;;;;;;;42.53;7.30;;;;;;;;;;5031160;28;20021;-68
2021/11/08 08:24:49;;;;;;;34.45;7.68;;;;;;;;;;5031043;28;20032;-68
2021/11/08 08:27:14;;;;;;;33.63;7.78;;;;;;;;;;5031589;28;20374;-69
2021/11/08 08:29:40;;;;;;;37.38;8.90;;;;;;;;;;5026817;28;20475;-68
2021/11/08 08:32:05;;;;;;;38.80;7.57;;;;;;;;;;5025191;28;20033;-68
2021/11/08 08:34:30;;;;;;;37.58;7.63;;;;;;;;;;5031687;28;20430;-69
2021/11/08 08:36:57;;;;;;;40.45;8.68;;;;;;;;;;5031078;28;20028;-68
2021/11/08 08:39:23;;;;;;;33.70;7.15;;;;;;;;;;5031538;28;20029;-68
2021/11/08 08:41:49;;;;;;;40.42;7.90;;;;;;;;;;5030029;28;20043;-68
2021/11/08 08:44:15;;;;;;;33.40;8.32;;;;;;;;;;5030903;28;20454;-68
2021/11/08 08:46:41;;;;;;;33.13;7.82;;;;;;;;;;5030892;28;20445;-68
2021/11/08 08:49:06;;;;;;;30.40;7.28;;;;;;;;;;5031759;28;20025;-68
2021/11/08 08:51:31;;;;;;;32.17;8.10;;;;;;;;;;5030580;28;20104;-68
2021/11/08 08:53:56;;;;;;;38.70;8.33;;;;;;;;;;5030565;28;20739;-68
2021/11/08 08:56:22;;;;;;;27.55;7.55;;;;;;;;;;5030012;28;20311;-68
2021/11/08 08:58:49;;;;;;;29.85;7.43;;;;;;;;;;5029854;28;20050;-70
2021/11/08 09:01:14;;;;;;;35.05;7.97;;;;;;;;;;5030457;28;20224;-68
2021/11/08 09:03:39;;;;;;;45.30;7.75;;;;;;;;;;5030601;28;20013;-68
2021/11/08 09:06:05;;;;;;;40.57;7.90;;;;;;;;;;5030510;28;20060;-68
2021/11/08 09:08:32;;;;;;;44.05;7.20;;;;;;;;;;5030415;28;20264;-69
2021/11/08 09:10:57;;;;;;;39.53;8.52;;;;;;;;;;5030492;28;20026;-68
2021/11/08 09:13:23;;;;;;;30.90;7.22;;;;;;;;;;5030333;28;20040;-68
2021/11/08 09:15:48;;;;;;;46.50;10.02;;;;;;;;;;5033532;28;20052;-68
2021/11/08 09:18:16;;;;;;;44.67;8.27;;;;;;;;;;5039239;28;20155;-68
2021/11/08 09:20:43;;;;;;;49.63;9.77;;;;;;;;;;5047306;28;20112;-68
2021/11/08 09:23:08;;;;;;;29.13;8.75;;;;;;;;;;5030493;28;20064;-68
2021/11/08 09:25:34;;;;;;;36.80;9.30;;;;;;;;;;5031588;28;20477;-68
2021/11/08 09:28:00;;;;;;;37.75;8.75;;;;;;;;;;5030024;28;20022;-68
2021/11/08 09:30:27;;;;;;;37.38;8.68;;;;;;;;;;5030491;28;20025;-68
2021/11/08 09:32:52;;;;;;;34.97;10.00;;;;;;;;;;5030407;28;20032;-68
2021/11/08 09:35:18;;;;;;;49.08;9.30;;;;;;;;;;5029804;28;20021;-68
2021/11/08 09:37:44;;;;;;;40.35;11.05;;;;;;;;;;5028868;28;20384;-68
2021/11/08 09:40:14;;;;;;;35.30;7.80;;;;;;;;;;5030012;28;20544;-68
2021/11/08 09:42:40;;;;;;;33.25;8.00;;;;;;;;;;5029885;28;20028;-68
2021/11/08 09:45:06;;;;;;;54.80;10.82;;;;;;;;;;5030573;28;20127;-68
2021/11/08 09:47:32;;;;;;;41.53;10.20;;;;;;;;;;5030344;28;20052;-68
2021/11/08 09:50:01;;;;;;;43.97;8.23;;;;;;;;;;5029690;28;20095;-68
2021/11/08 09:52:27;;;;;;;31.67;9.00;;;;;;;;;;5028611;28;20025;-69
2021/11/08 09:54:53;;;;;;;43.20;8.65;;;;;;;;;;5029895;28;20428;-68
2021/11/08 09:57:23;;;;;;;33.05;8.63;;;;;;;;;;5030256;28;20112;-69
2021/11/08 09:59:48;;;;;;;45.65;9.70;;;;;;;;;;5030449;28;20194;-68
2021/11/08 10:02:14;;;;;;;48.47;9.00;;;;;;;;;;5029613;28;20120;-69
2021/11/08 10:04:40;;;;;;;42.65;10.88;;;;;;;;;;5025755;28;20475;-68
2021/11/08 10:07:06;;;;;;;39.42;9.23;;;;;;;;;;5029782;28;20489;-68
2021/11/08 10:09:31;;;;;;;41.40;9.10;;;;;;;;;;5030226;28;20072;-68
2021/11/08 10:11:56;;;;;;;47.08;9.95;;;;;;;;;;5025767;28;20017;-69
2021/11/08 10:14:22;;;;;;;42.42;9.13;;;;;;;;;;5030055;28;20051;-69
2021/11/08 10:16:48;;;;;;;44.22;10.48;;;;;;;;;;5030190;28;20104;-69
2021/11/08 10:19:14;;;;;;;46.55;11.50;;;;;;;;;;5029600;28;20017;-69
2021/11/08 10:21:42;;;;;;;50.25;9.77;;;;;;;;;;5030152;28;20060;-70
2021/11/08 10:24:08;;;;;;;44.67;10.55;;;;;;;;;;5027480;28;20026;-70
2021/11/08 10:26:36;;;;;;;44.08;9.82;;;;;;;;;;5028966;28;20089;-69
2021/11/08 10:29:13;;;;;;;39.10;7.88;;;;;;;;;;5028622;28;20023;-70
2021/11/08 10:31:40;;;;;;;50.97;10.45;;;;;;;;;;5029969;28;20025;-69
2021/11/08 10:34:07;;;;;;;33.63;9.30;;;;;;;;;;5027672;28;20056;-70
2021/11/08 10:36:32;;;;;;;45.75;9.50;;;;;;;;;;5027284;28;20484;-70
2021/11/08 10:38:59;;;;;;;45.42;10.07;;;;;;;;;;5028429;28;20037;-71
2021/11/08 10:41:26;;;;;;;47.33;11.15;;;;;;;;;;5028816;28;20056;-71
2021/11/08 10:43:58;;;;;;;42.28;9.75;;;;;;;;;;5029480;28;20026;-70
2021/11/08 10:46:28;;;;;;;40.83;10.23;;;;;;;;;;5029691;28;20092;-70
2021/11/08 10:48:56;;;;;;;43.70;10.50;;;;;;;;;;5029729;28;20021;-70
2021/11/08 10:51:23;;;;;;;44.15;9.80;;;;;;;;;;5028685;28;20489;-70
2021/11/08 10:53:55;;;;;;;53.30;11.77;;;;;;;;;;5028229;28;20036;-70
2021/11/08 10:56:22;;;;;;;44.50;10.43;;;;;;;;;;5030278;28;20474;-70
2021/11/08 10:58:47;;;;;;;33.05;10.13;;;;;;;;;;5028608;28;20053;-70
2021/11/08 11:01:42;;;;;;;51.85;12.45;;;;;;;;;;5028983;28;22191;-70
2021/11/08 11:04:07;;;;;;;30.00;8.57;;;;;;;;;;5019689;28;20033;-71
2021/11/08 11:06:34;;;;;;;45.72;11.02;;;;;;;;;;5032093;28;20021;-71
2021/11/08 11:09:02;;;;;;;43.08;9.45;;;;;;;;;;5030440;28;20048;-70
2021/11/08 11:11:27;;;;;;;42.75;9.77;;;;;;;;;;5031464;28;20071;-70
2021/11/08 11:13:54;;;;;;;47.05;8.63;;;;;;;;;;5032555;28;20421;-71
2021/11/08 11:16:33;;;;;;;67.13;12.13;;;;;;;;;;5032771;28;20021;-70
2021/11/08 11:19:03;;;;;;;49.78;9.90;;;;;;;;;;5032540;28;20022;-73
2021/11/08 11:21:28;;;;;;;;;;;;;;;;;;5034425;28;20036;-71
2021/11/08 11:24:00;;;;;;;44.33;8.20;;;;;;;;;;5032559;28;19909;-70
2021/11/08 11:26:29;;;;;;;44.42;9.80;;;;;;;;;;5032344;28;20017;-69
2021/11/08 11:28:54;;;;;;;37.97;9.70;;;;;;;;;;5032799;28;20056;-69
2021/11/08 11:31:21;;;;;;;41.83;8.20;;;;;;;;;;5031008;28;20049;-69
2021/11/08 11:33:47;;;;;;;38.67;6.60;;;;;;;;;;5030202;28;20025;-69
2021/11/08 11:36:15;;;;;;;27.42;6.20;;;;;;;;;;5031637;28;20029;-69
2021/11/08 11:38:42;;;;;;;38.88;8.25;;;;;;;;;;5030496;28;20025;-69
2021/11/08 11:41:11;;;;;;;47.28;7.97;;;;;;;;;;5031562;28;20016;-69
2021/11/08 11:43:46;;;;;;;41.13;7.97;;;;;;;;;;5032294;28;20014;-69
2021/11/08 11:46:13;;;;;;;33.50;7.38;;;;;;;;;;5029576;28;20546;-69
2021/11/08 11:48:38;;;;;;;39.97;8.68;;;;;;;;;;5033327;28;20021;-71
2021/11/08 11:51:05;;;;;;;35.50;7.80;;;;;;;;;;5031958;28;20312;-69
2021/11/08 11:53:31;;;;;;;27.38;7.00;;;;;;;;;;5031014;28;20268;-69
2021/11/08 11:55:56;;;;;;;42.80;8.43;;;;;;;;;;5032086;28;20022;-69
2021/11/08 11:58:21;;;;;;;39.53;8.23;;;;;;;;;;5032500;28;20025;-69
2021/11/08 12:00:48;;;;;;;39.28;7.80;;;;;;;;;;5031503;28;20021;-69
2021/11/08 12:03:13;;;;;;;41.60;7.82;;;;;;;;;;5033558;28;20402;-69
2021/11/08 12:05:44;;;;;;;35.88;9.35;;;;;;;;;;5031959;28;20029;-69
2021/11/08 12:08:09;;;;;;;30.40;7.68;;;;;;;;;;5031745;28;20029;-69
2021/11/08 12:10:42;;;;;;;43.90;9.95;;;;;;;;;;5031721;28;20495;-70
2021/11/08 12:13:18;;;;;;;48.67;8.57;;;;;;;;;;5030642;28;20460;-69
2021/11/08 12:15:44;;;;;;;57.10;8.23;;;;;;;;;;5031378;28;20381;-69
2021/11/08 12:18:11;;;;;;;35.65;9.98;;;;;;;;;;5030846;28;20025;-69
2021/11/08 12:20:54;;;;;;;38.97;8.05;;;;;;;;;;5031023;28;20040;-68
2021/11/08 12:23:21;;;;;;;36.42;7.53;;;;;;;;;;5030864;28;20406;-69
2021/11/08 12:25:47;;;;;;;42.47;6.68;;;;;;;;;;5031584;28;20028;-69
2021/11/08 12:28:19;;;;;;;55.83;8.93;;;;;;;;;;5031554;28;20017;-69
2021/11/08 12:30:48;;;;;;;48.03;8.80;;;;;;;;;;5030523;28;20048;-69
2021/11/08 12:33:31;;;;;;;34.00;7.50;;;;;;;;;;5030863;28;20021;-69
2021/11/08 12:36:18;;;;;;;38.33;9.23;;;;;;;;;;5030479;28;20029;-69
2021/11/08 12:38:56;;;;;;;42.80;8.63;;;;;;;;;;5031549;28;20425;-69
2021/11/08 12:41:32;;;;;;;34.80;8.55;;;;;;;;;;5031187;28;20013;-69
2021/11/08 12:44:06;;;;;;;49.47;8.35;;;;;;;;;;5031815;28;20469;-70
2021/11/08 12:46:37;;;;;;;45.47;8.85;;;;;;;;;;5031714;28;20481;-68
2021/11/08 12:49:17;;;;;;;46.08;8.05;;;;;;;;;;5030615;28;20037;-69
2021/11/08 12:51:53;;;;;;;53.65;9.65;;;;;;;;;;5017771;28;20025;-69
2021/11/08 12:54:19;;;;;;;47.65;8.07;;;;;;;;;;5026844;28;20033;-69
2021/11/08 12:56:46;;;;;;;43.47;7.68;;;;;;;;;;5030518;28;20076;-69
2021/11/08 12:59:17;;;;;;;48.35;9.85;;;;;;;;;;5030397;28;20025;-69
2021/11/08 13:01:45;;;;;;;40.85;8.40;;;;;;;;;;5050266;23;20053;-66
2021/11/08 13:04:13;;;;;;;49.88;7.53;;;;;;;;;;5029516;28;20053;-66
2021/11/08 13:06:39;;;;;;;25.42;6.25;;;;;;;;;;5030172;28;20044;-66
2021/11/08 13:09:04;;;;;;;41.47;7.63;;;;;;;;;;5030332;28;20064;-65
2021/11/08 13:11:35;;;;;;;32.95;7.82;;;;;;;;;;5030061;28;20018;-66
2021/11/08 13:14:01;;;;;;;39.35;7.72;;;;;;;;;;5029446;28;20036;-66
2021/11/08 13:16:42;;;;;;;45.13;8.55;;;;;;;;;;5030635;28;20502;-66
2021/11/08 13:19:09;;;;;;;39.10;8.07;;;;;;;;;;5027016;28;20025;-66
2021/11/08 13:21:35;;;;;;;40.03;6.75;;;;;;;;;;5024460;28;20017;-66
2021/11/08 13:24:00;;;;;;;42.13;7.10;;;;;;;;;;5030175;28;20018;-66
2021/11/08 13:26:26;;;;;;;25.83;6.07;;;;;;;;;;5028742;28;20014;-65
2021/11/08 13:28:51;;;;;;;39.13;6.55;;;;;;;;;;5029289;28;20512;-65
2021/11/08 13:31:16;;;;;;;25.30;6.50;;;;;;;;;;5029282;28;20025;-66
2021/11/08 13:33:43;;;;;;;37.78;6.90;;;;;;;;;;5029150;28;20029;-66
2021/11/08 13:36:10;;;;;;;34.90;6.43;;;;;;;;;;5024486;28;20024;-65
2021/11/08 13:38:38;;;;;;;33.17;6.32;;;;;;;;;;5026879;28;20029;-66
2021/11/08 13:41:04;;;;;;;43.38;6.50;;;;;;;;;;5026603;28;20017;-66
2021/11/08 13:43:42;;;;;;;41.72;7.75;;;;;;;;;;5029161;28;20028;-65
2021/11/08 13:46:14;;;;;;;40.70;7.65;;;;;;;;;;5026526;28;20071;-65
2021/11/08 13:48:43;;;;;;;38.15;7.10;;;;;;;;;;5027973;28;20586;-66
2021/11/08 13:51:20;;;;;;;43.05;6.90;;;;;;;;;;5029235;28;20096;-66
2021/11/08 13:53:50;;;;;;;37.60;6.03;;;;;;;;;;5029572;28;20052;-66
2021/11/08 13:56:15;;;;;;;33.42;6.10;;;;;;;;;;5028524;28;20373;-66
2021/11/08 13:58:53;;;;;;;26.42;6.25;;;;;;;;;;5029694;28;20028;-66
2021/11/08 14:01:22;;;;;;;37.50;6.93;;;;;;;;;;5028799;28;20021;-65
2021/11/08 14:03:49;;;;;;;33.08;6.07;;;;;;;;;;5021243;28;20324;-66
2021/11/08 14:06:24;;;;;;;34.75;6.05;;;;;;;;;;5029121;28;20025;-65
2021/11/08 14:08:50;;;;;;;39.65;7.15;;;;;;;;;;5029124;28;20079;-66
2021/11/08 14:11:26;;;;;;;29.60;5.32;;;;;;;;;;5029278;28;20030;-66
2021/11/08 14:13:52;;;;;;;31.20;7.30;;;;;;;;;;5029484;28;20545;-65
2021/11/08 14:16:18;;;;;;;44.45;8.18;;;;;;;;;;5029413;28;20017;-66
2021/11/08 14:18:49;;;;;;;28.52;6.22;;;;;;;;;;5029416;28;20530;-66
2021/11/08 14:21:14;;;;;;;34.45;6.63;;;;;;;;;;5028969;28;20071;-65
2021/11/08 14:23:42;;;;;;;32.53;6.40;;;;;;;;;;5029659;28;20092;-65
2021/11/08 14:26:11;;;;;;;39.58;6.13;;;;;;;;;;5029467;28;20021;-66
2021/11/08 14:28:36;;;;;;;35.63;7.50;;;;;;;;;;5029220;28;20504;-66
2021/11/08 14:31:03;;;;;;;35.42;6.40;;;;;;;;;;5029029;28;20026;-66
2021/11/08 14:33:29;;;;;;;39.13;7.20;;;;;;;;;;5028569;28;20093;-66
2021/11/08 14:35:54;;;;;;;34.70;7.93;;;;;;;;;;5022774;28;20093;-65
2021/11/08 14:38:30;;;;;;;33.35;6.85;;;;;;;;;;5012985;28;20474;-65
2021/11/08 14:40:56;;;;;;;36.75;6.25;;;;;;;;;;5033461;28;20028;-65
2021/11/08 14:43:23;;;;;;;47.25;7.75;;;;;;;;;;5036253;28;20026;-65
2021/11/08 14:45:56;;;;;;;37.50;6.88;;;;;;;;;;5033002;28;20013;-65
2021/11/08 14:48:22;;;;;;;37.80;6.47;;;;;;;;;;5030663;28;20426;-65
2021/11/08 14:50:48;;;;;;;50.08;7.03;;;;;;;;;;5032754;28;20100;-65
2021/11/08 14:53:14;;;;;;;39.20;6.75;;;;;;;;;;5031957;28;20116;-66
2021/11/08 14:55:39;;;;;;;46.42;6.40;;;;;;;;;;5032918;28;20023;-66
2021/11/08 14:58:15;;;;;;;31.60;7.45;;;;;;;;;;5032969;28;20030;-65
2021/11/08 15:00:41;;;;;;;39.45;7.10;;;;;;;;;;5032660;28;20017;-65
2021/11/08 15:03:11;;;;;;;46.30;7.93;;;;;;;;;;5032295;28;20021;-65
2021/11/08 15:05:37;;;;;;;37.38;5.97;;;;;;;;;;5045104;28;20555;-66
2021/11/08 15:08:05;;;;;;;54.90;10.25;;;;;;;;;;5033064;28;20026;-66
2021/11/08 15:10:32;;;;;;;42.60;6.45;;;;;;;;;;5032495;28;20390;-66
2021/11/08 15:12:59;;;;;;;34.38;7.50;;;;;;;;;;5032263;28;20022;-65
2021/11/08 15:15:32;;;;;;;46.92;7.70;;;;;;;;;;5031303;28;20034;-66
2021/11/08 15:18:04;;;;;;;32.05;6.25;;;;;;;;;;5032767;28;20021;-66
2021/11/08 15:20:40;;;;;;;29.88;6.90;;;;;;;;;;5032172;28;20046;-67
2021/11/08 15:23:07;;;;;;;43.33;6.40;;;;;;;;;;5032061;28;20022;-66
2021/11/08 15:25:43;;;;;;;40.22;6.45;;;;;;;;;;5032240;28;20029;-66
2021/11/08 15:28:16;;;;;;;36.33;6.15;;;;;;;;;;5032842;28;20048;-66
2021/11/08 15:30:46;;;;;;;36.78;5.07;;;;;;;;;;5031338;28;20022;-65
2021/11/08 15:33:13;;;;;;;29.60;6.63;;;;;;;;;;5032104;28;20017;-66
2021/11/08 15:35:40;;;;;;;33.65;5.70;;;;;;;;;;5032285;28;20083;-66
2021/11/08 15:38:08;;;;;;;39.63;6.35;;;;;;;;;;5032288;28;20021;-66
2021/11/08 15:40:33;;;;;;;45.38;5.47;;;;;;;;;;5029427;28;20032;-66
2021/11/08 15:43:03;;;;;;;37.33;6.28;;;;;;;;;;5031516;28;20026;-65
2021/11/08 15:45:28;;;;;;;31.90;6.50;;;;;;;;;;5027855;28;20072;-65
2021/11/08 15:47:54;;;;;;;34.23;5.77;;;;;;;;;;5030705;28;20096;-66
2021/11/08 15:50:19;;;;;;;34.47;6.20;;;;;;;;;;5030680;28;20269;-65
2021/11/08 15:52:44;;;;;;;37.22;6.35;;;;;;;;;;5030345;28;20017;-65
2021/11/08 15:55:09;;;;;;;55.00;10.35;;;;;;;;;;5029134;28;20078;-65
2021/11/08 15:57:35;;;;;;;37.65;7.55;;;;;;;;;;5031088;28;20049;-66
2021/11/08 16:00:01;;;;;;;31.88;6.40;;;;;;;;;;5031627;28;20037;-65
2021/11/08 16:02:26;;;;;;;41.72;7.10;;;;;;;;;;5032017;28;20032;-65
2021/11/08 16:04:51;;;;;;;29.92;6.00;;;;;;;;;;5031547;28;20022;-65
2021/11/08 16:07:17;;;;;;;35.38;6.05;;;;;;;;;;5031499;28;20431;-66
2021/11/08 16:09:42;;;;;;;33.13;6.50;;;;;;;;;;5031293;28;20025;-66
2021/11/08 16:12:07;;;;;;;32.35;6.93;;;;;;;;;;5026280;28;20021;-65
2021/11/08 16:14:33;;;;;;;26.63;6.40;;;;;;;;;;5026896;28;20079;-65